Terminal Aerodrome Forecast
Issued by NWS

Home | Current Version | Previous Version | Text Only | Print | Product List | Glossary On
Versions: 1 2 3 4 5 6 7 8 9 10 11 12 13 14 15 16 17 18 19 20
000
FTUS46 KSEW 240500
TAFBFI
TAF
KBFI 240534Z 2406/2506 13006KT P6SM SCT060 BKN100
     FM240800 13006KT P6SM -SHRA BKN050 BKN070
     FM241000 VRB03KT P6SM SCT060 BKN100
     FM241800 VRB03KT P6SM BKN100 BKN200
     FM250400 02006KT P6SM -RA OVC045=

USA.gov is the U.S. government's official web portal to all federal, state and local government web resources and services.